createdAt,value
2023-04-17T00:00:52.570Z,246.34
2023-04-17T00:01:52.571Z,247.55
2023-04-17T00:02:52.661Z,246.99
2023-04-17T00:03:52.679Z,247.13
2023-04-17T00:04:52.674Z,247.27
2023-04-17T00:05:52.489Z,247.80
2023-04-17T00:06:52.489Z,246.24
2023-04-17T00:07:52.487Z,248.15
2023-04-17T00:08:52.459Z,246.22
2023-04-17T00:09:52.460Z,247.83
2023-04-17T00:11:04.104Z,248.37
2023-04-17T00:11:52.390Z,248.42
2023-04-17T00:12:52.410Z,248.37
2023-04-17T00:13:52.340Z,248.22
2023-04-17T00:14:52.330Z,247.59
2023-04-17T00:15:52.285Z,247.96
2023-04-17T00:16:52.297Z,247.31
2023-04-17T00:17:52.245Z,246.42
2023-04-17T00:18:52.196Z,247.54
2023-04-17T00:19:52.167Z,247.37
2023-04-17T00:20:52.138Z,246.98
2023-04-17T00:21:52.109Z,248.41
2023-04-17T00:22:52.065Z,247.50
2023-04-17T00:23:52.035Z,247.60
2023-04-17T00:24:52.036Z,247.69
2023-04-17T00:25:51.966Z,247.89
2023-04-17T00:26:51.958Z,247.79
2023-04-17T00:27:51.908Z,248.02
2023-04-17T00:28:51.955Z,247.63
2023-04-17T00:29:51.867Z,247.32
2023-04-17T00:30:51.832Z,247.22
2023-04-17T00:31:51.847Z,247.11
2023-04-17T00:32:51.812Z,246.74
2023-04-17T00:33:51.738Z,246.58
2023-04-17T00:34:53.171Z,246.60
2023-04-17T00:35:51.698Z,247.36
2023-04-17T00:36:51.663Z,246.84
2023-04-17T00:37:51.668Z,245.90
2023-04-17T00:38:51.615Z,246.66
2023-04-17T00:39:51.595Z,245.55
2023-04-17T00:40:51.607Z,245.41
2023-04-17T00:41:51.523Z,246.28
2023-04-17T00:42:51.490Z,245.33
2023-04-17T00:43:51.490Z,246.37
2023-04-17T00:44:51.435Z,245.42
2023-04-17T00:45:51.462Z,246.24
2023-04-17T00:46:51.383Z,246.49
2023-04-17T00:47:51.433Z,245.35
2023-04-17T00:48:51.297Z,245.66
2023-04-17T00:49:51.264Z,246.71
2023-04-17T00:50:51.248Z,246.12
2023-04-17T00:51:51.204Z,245.82
2023-04-17T00:52:51.181Z,246.22
2023-04-17T00:53:51.168Z,246.17
2023-04-17T00:54:51.122Z,245.44
2023-04-17T00:55:51.079Z,245.32
2023-04-17T00:56:51.066Z,245.26
2023-04-17T00:57:51.008Z,244.10
2023-04-17T00:58:50.991Z,246.39
2023-04-17T00:59:50.970Z,245.15
2023-04-17T01:00:50.949Z,245.00
2023-04-17T01:01:50.974Z,246.12
2023-04-17T01:02:50.992Z,245.68
2023-04-17T01:03:50.931Z,245.51
2023-04-17T01:04:50.784Z,245.32
2023-04-17T01:05:50.784Z,244.88
2023-04-17T01:06:50.688Z,245.46
2023-04-17T01:07:50.669Z,246.46
2023-04-17T01:08:50.647Z,246.56
2023-04-17T01:09:50.577Z,246.63
2023-04-17T01:10:50.572Z,246.02
2023-04-17T01:11:50.507Z,247.12
2023-04-17T01:12:50.478Z,245.71
2023-04-17T01:13:50.459Z,245.79
2023-04-17T01:14:50.437Z,245.58
2023-04-17T01:15:50.407Z,245.35
2023-04-17T01:16:50.427Z,245.40
2023-04-17T01:17:50.358Z,246.05
2023-04-17T01:18:50.298Z,245.81
2023-04-17T01:19:50.295Z,245.36
2023-04-17T01:20:50.249Z,246.13
2023-04-17T01:21:50.213Z,247.52
2023-04-17T01:22:50.197Z,244.01
2023-04-17T01:23:50.186Z,244.61
2023-04-17T01:24:50.127Z,244.74
2023-04-17T01:25:50.082Z,244.99
2023-04-17T01:26:50.080Z,245.18
2023-04-17T01:27:50.034Z,245.53
2023-04-17T01:28:50.000Z,245.86
2023-04-17T01:29:49.986Z,245.48
2023-04-17T01:30:49.960Z,245.83
2023-04-17T01:31:49.931Z,244.70
2023-04-17T01:32:49.895Z,245.29
2023-04-17T01:33:49.867Z,245.24
2023-04-17T01:34:49.835Z,246.11
2023-04-17T01:35:49.815Z,244.87
2023-04-17T01:36:49.789Z,244.63
2023-04-17T01:37:49.806Z,246.16
2023-04-17T01:38:49.734Z,246.03
2023-04-17T01:39:49.719Z,245.13
2023-04-17T01:40:49.697Z,244.43
2023-04-17T01:41:49.682Z,246.01
2023-04-17T01:42:49.755Z,246.13
2023-04-17T01:43:49.749Z,245.93
2023-04-17T01:44:49.735Z,245.70
2023-04-17T01:45:49.759Z,245.51
2023-04-17T01:46:49.712Z,244.60
2023-04-17T01:47:49.780Z,244.72
2023-04-17T01:48:49.721Z,245.98
2023-04-17T01:49:49.714Z,246.50
2023-04-17T01:50:49.709Z,246.72
2023-04-17T01:51:49.691Z,245.72
2023-04-17T01:52:49.689Z,244.47
2023-04-17T01:53:49.692Z,246.41
2023-04-17T01:54:49.673Z,246.09
2023-04-17T01:55:49.667Z,244.95
2023-04-17T01:56:49.646Z,246.60
2023-04-17T01:57:49.735Z,246.10
2023-04-17T01:58:49.728Z,244.99
2023-04-17T01:59:49.760Z,244.78
2023-04-17T02:00:49.788Z,245.86
2023-04-17T02:01:49.806Z,244.95
2023-04-17T02:02:49.807Z,244.56
2023-04-17T02:03:49.919Z,245.14
2023-04-17T02:04:49.819Z,245.26
2023-04-17T02:05:49.813Z,246.57
2023-04-17T02:06:49.811Z,245.28
2023-04-17T02:07:49.792Z,245.38
2023-04-17T02:08:49.788Z,244.78
2023-04-17T02:09:49.795Z,245.06
2023-04-17T02:10:49.816Z,245.36
2023-04-17T02:11:49.785Z,244.47
2023-04-17T02:12:49.780Z,244.13
2023-04-17T02:13:49.750Z,245.46
2023-04-17T02:14:49.760Z,244.52
2023-04-17T02:15:49.786Z,243.43
2023-04-17T02:16:49.743Z,246.29
2023-04-17T02:17:49.797Z,245.35
2023-04-17T02:18:49.731Z,245.13
2023-04-17T02:19:49.762Z,245.71
2023-04-17T02:20:49.760Z,245.43
2023-04-17T02:21:49.735Z,245.25
2023-04-17T02:22:49.723Z,245.27
2023-04-17T02:23:49.712Z,244.41
2023-04-17T02:24:49.748Z,245.28
2023-04-17T02:25:49.807Z,244.73
2023-04-17T02:26:49.899Z,244.93
2023-04-17T02:27:49.946Z,245.97
2023-04-17T02:28:49.948Z,245.73
2023-04-17T02:29:49.932Z,245.91
2023-04-17T02:30:49.934Z,245.29
2023-04-17T02:31:50.057Z,245.08
2023-04-17T02:32:49.977Z,244.74
2023-04-17T02:33:50.015Z,244.70
2023-04-17T02:34:49.990Z,245.26
2023-04-17T02:35:50.010Z,244.37
2023-04-17T02:36:50.007Z,245.88
2023-04-17T02:37:49.969Z,244.99
2023-04-17T02:38:49.977Z,244.67
2023-04-17T02:39:49.953Z,244.57
2023-04-17T02:40:49.990Z,245.60
2023-04-17T02:41:50.036Z,244.66
2023-04-17T02:42:50.127Z,244.87
2023-04-17T02:43:50.178Z,245.02
2023-04-17T02:44:50.151Z,242.83
2023-04-17T02:45:50.170Z,241.03
2023-04-17T02:46:50.216Z,232.67
2023-04-17T02:47:50.288Z,232.30
2023-04-17T02:48:50.156Z,226.81
2023-04-17T02:49:50.131Z,217.43
2023-04-17T02:50:50.182Z,201.34
2023-04-17T02:51:50.270Z,188.06
2023-04-17T02:52:50.240Z,176.18
2023-04-17T02:53:50.222Z,164.04
2023-04-17T02:54:50.254Z,151.95
2023-04-17T02:55:50.273Z,139.53
2023-04-17T02:56:50.302Z,127.46
2023-04-17T02:57:50.309Z,118.59
2023-04-17T02:58:50.359Z,110.11
2023-04-17T02:59:50.360Z,100.71
2023-04-17T03:00:50.446Z,92.78
2023-04-17T03:01:50.427Z,86.20
2023-04-17T03:02:50.427Z,78.60
2023-04-17T03:03:50.589Z,69.73
2023-04-17T03:04:50.388Z,64.44
2023-04-17T03:05:50.276Z,55.27
2023-04-17T03:06:50.274Z,47.20
2023-04-17T03:07:50.215Z,39.64
2023-04-17T03:08:50.205Z,36.09
2023-04-17T03:09:50.193Z,30.18
2023-04-17T03:10:50.179Z,25.77
2023-04-17T03:11:50.229Z,25.52
2023-04-17T03:12:50.265Z,26.60
2023-04-17T03:13:50.294Z,25.25
2023-04-17T03:14:50.331Z,25.16
2023-04-17T03:15:50.370Z,26.45
2023-04-17T03:16:50.575Z,25.45
2023-04-17T03:17:50.541Z,25.68
2023-04-17T03:18:50.513Z,24.76
2023-04-17T03:19:50.553Z,25.04
2023-04-17T03:20:50.623Z,26.14
2023-04-17T03:21:50.641Z,26.78
2023-04-17T03:22:50.712Z,26.07
2023-04-17T03:23:50.721Z,25.00
2023-04-17T03:24:50.790Z,25.61
2023-04-17T03:25:50.841Z,25.42
2023-04-17T03:26:50.905Z,25.00
2023-04-17T03:27:50.945Z,25.00
2023-04-17T03:28:50.989Z,25.00
2023-04-17T03:29:51.032Z,25.00
2023-04-17T03:30:51.038Z,25.00
2023-04-17T03:31:51.120Z,26.05
2023-04-17T03:32:51.120Z,25.68
2023-04-17T03:33:51.183Z,25.91
2023-04-17T03:34:51.175Z,25.17
2023-04-17T03:35:51.200Z,26.22
2023-04-17T03:36:51.239Z,25.69
2023-04-17T03:37:51.246Z,26.31
2023-04-17T03:38:51.255Z,26.07
2023-04-17T03:39:51.225Z,25.51
2023-04-17T03:40:51.233Z,25.96
2023-04-17T03:41:51.257Z,25.01
2023-04-17T03:42:51.278Z,26.42
2023-04-17T03:43:51.290Z,25.75
2023-04-17T03:44:51.264Z,26.42
2023-04-17T03:45:51.371Z,27.34
2023-04-17T03:46:51.254Z,27.41
2023-04-17T03:47:51.227Z,26.39
2023-04-17T03:48:51.214Z,26.58
2023-04-17T03:49:51.186Z,25.46
2023-04-17T03:50:51.168Z,23.77
2023-04-17T03:51:51.157Z,26.30
2023-04-17T03:52:51.141Z,25.30
2023-04-17T03:53:51.091Z,25.80
2023-04-17T03:54:51.064Z,25.07
2023-04-17T03:55:51.056Z,25.08
2023-04-17T03:56:51.049Z,26.92
2023-04-17T03:57:51.003Z,25.69
2023-04-17T03:58:51.002Z,26.04
2023-04-17T03:59:50.958Z,26.12
2023-04-17T04:00:50.948Z,26.14
2023-04-17T04:01:50.980Z,25.27
2023-04-17T04:02:51.026Z,21.53
2023-04-17T04:03:50.995Z,22.93
2023-04-17T04:04:50.996Z,25.40
2023-04-17T04:05:50.849Z,25.84
2023-04-17T04:06:50.853Z,26.95
2023-04-17T04:07:50.830Z,25.96
2023-04-17T04:08:50.822Z,27.32
2023-04-17T04:09:50.797Z,26.26
2023-04-17T04:10:50.789Z,27.07
2023-04-17T04:11:50.782Z,26.17
2023-04-17T04:12:50.794Z,26.31
2023-04-17T04:13:50.762Z,26.31
2023-04-17T04:14:50.739Z,26.31
2023-04-17T04:15:50.739Z,27.36
2023-04-17T04:16:50.713Z,27.56
2023-04-17T04:17:50.774Z,29.00
2023-04-17T04:18:50.701Z,26.76
2023-04-17T04:19:50.676Z,25.82
2023-04-17T04:20:50.678Z,26.79
2023-04-17T04:21:50.656Z,27.36
2023-04-17T04:22:50.651Z,25.75
2023-04-17T04:23:50.633Z,27.14
2023-04-17T04:24:50.621Z,28.10
2023-04-17T04:25:50.637Z,26.97
2023-04-17T04:26:50.604Z,29.02
2023-04-17T04:27:50.610Z,28.92
2023-04-17T04:28:50.581Z,28.95
2023-04-17T04:29:50.549Z,30.55
2023-04-17T04:30:50.740Z,29.02
2023-04-17T04:31:50.632Z,29.08
2023-04-17T04:32:50.565Z,29.54
2023-04-17T04:33:50.484Z,29.14
2023-04-17T04:34:50.477Z,29.53
2023-04-17T04:35:50.499Z,30.67
2023-04-17T04:36:50.475Z,32.23
2023-04-17T04:37:50.434Z,34.25
2023-04-17T04:38:50.524Z,32.96
2023-04-17T04:39:50.413Z,34.69
2023-04-17T04:40:50.391Z,32.88
2023-04-17T04:41:50.693Z,32.94
2023-04-17T04:42:50.380Z,32.30
2023-04-17T04:43:50.370Z,31.29
2023-04-17T04:44:50.358Z,34.20
2023-04-17T04:45:50.350Z,35.42
2023-04-17T04:46:50.356Z,33.84
2023-04-17T04:47:50.364Z,32.64
2023-04-17T04:48:50.325Z,34.58
2023-04-17T04:49:50.323Z,35.06
2023-04-17T04:50:50.311Z,33.50
2023-04-17T04:51:50.321Z,33.13
2023-04-17T04:52:50.331Z,34.69
2023-04-17T04:53:50.295Z,36.96
2023-04-17T04:54:50.297Z,36.71
2023-04-17T04:55:50.308Z,37.39
2023-04-17T04:56:50.271Z,37.12
2023-04-17T04:57:50.288Z,36.38
2023-04-17T04:58:50.260Z,36.82
2023-04-17T04:59:50.265Z,37.13
2023-04-17T05:00:50.249Z,35.05
2023-04-17T05:01:50.280Z,33.50
2023-04-17T05:02:50.552Z,33.99
2023-04-17T05:03:50.374Z,34.22
2023-04-17T05:04:50.272Z,33.06
2023-04-17T05:05:50.209Z,34.93
2023-04-17T05:06:50.181Z,37.37
2023-04-17T05:07:50.182Z,41.87
2023-04-17T05:08:50.214Z,46.55
2023-04-17T05:09:50.140Z,49.81
2023-04-17T05:10:50.139Z,53.76
2023-04-17T05:11:50.113Z,58.85
2023-04-17T05:12:50.111Z,63.33
2023-04-17T05:13:50.117Z,68.22
2023-04-17T05:14:50.072Z,71.07
2023-04-17T05:15:50.090Z,75.20
2023-04-17T05:16:50.149Z,79.03
2023-04-17T05:17:50.183Z,82.51
2023-04-17T05:18:50.006Z,86.68
2023-04-17T05:19:50.010Z,86.83
2023-04-17T05:20:49.993Z,87.66
2023-04-17T05:21:49.989Z,90.18
2023-04-17T05:22:49.982Z,95.29
2023-04-17T05:23:49.959Z,102.52
2023-04-17T05:24:49.940Z,106.60
2023-04-17T05:25:49.932Z,108.92
2023-04-17T05:26:49.919Z,112.29
2023-04-17T05:27:49.909Z,116.55
2023-04-17T05:28:49.881Z,117.67
2023-04-17T05:29:49.872Z,121.57
2023-04-17T05:30:49.862Z,124.39
2023-04-17T05:31:49.944Z,126.65
2023-04-17T05:32:49.920Z,133.18
2023-04-17T05:33:49.811Z,127.87
2023-04-17T05:34:49.804Z,96.43
2023-04-17T05:35:49.787Z,90.84
2023-04-17T05:36:49.821Z,80.78
2023-04-17T05:37:49.794Z,64.68
2023-04-17T05:38:49.796Z,62.83
2023-04-17T05:39:49.787Z,58.30
2023-04-17T05:40:49.797Z,60.32
2023-04-17T05:41:49.811Z,46.93
2023-04-17T05:42:49.805Z,47.09
2023-04-17T05:43:49.802Z,48.64
2023-04-17T05:44:49.809Z,54.46
2023-04-17T05:45:49.918Z,68.81
2023-04-17T05:46:49.840Z,91.83
2023-04-17T05:47:49.879Z,103.21
2023-04-17T05:48:49.915Z,103.64
2023-04-17T05:49:49.802Z,106.05
2023-04-17T05:50:49.848Z,104.24
2023-04-17T05:51:49.800Z,108.93
2023-04-17T05:52:49.829Z,119.41
2023-04-17T05:53:49.768Z,134.45
2023-04-17T05:54:49.739Z,159.93
2023-04-17T05:55:49.735Z,168.45
2023-04-17T05:56:49.738Z,168.67
2023-04-17T05:57:49.743Z,170.23
2023-04-17T05:58:49.732Z,174.82
2023-04-17T05:59:49.677Z,183.20
2023-04-17T06:00:49.671Z,196.11
2023-04-17T06:01:49.660Z,203.32
2023-04-17T06:02:49.765Z,209.29
2023-04-17T06:03:49.770Z,211.20
2023-04-17T06:04:49.768Z,216.99
2023-04-17T06:05:49.626Z,219.23
2023-04-17T06:06:49.512Z,224.23
2023-04-17T06:07:49.513Z,227.36
2023-04-17T06:08:49.506Z,227.55
2023-04-17T06:09:49.479Z,228.53
2023-04-17T06:10:49.432Z,230.24
2023-04-17T06:11:49.498Z,231.50
2023-04-17T06:12:49.400Z,236.95
2023-04-17T06:13:49.396Z,239.12
2023-04-17T06:14:49.402Z,241.11
2023-04-17T06:15:49.355Z,244.80
2023-04-17T06:16:49.539Z,248.30
2023-04-17T06:17:49.383Z,250.00
2023-04-17T06:18:49.420Z,250.00
2023-04-17T06:19:49.427Z,249.45
2023-04-17T06:20:49.429Z,250.00
2023-04-17T06:21:49.515Z,250.00
2023-04-17T06:22:49.446Z,249.33
2023-04-17T06:23:49.457Z,250.00
2023-04-17T06:24:49.460Z,249.73
2023-04-17T06:25:49.418Z,249.53
2023-04-17T06:26:49.415Z,249.80
2023-04-17T06:27:49.408Z,250.00
2023-04-17T06:28:49.437Z,249.59
2023-04-17T06:29:49.414Z,249.80
2023-04-17T06:30:49.387Z,249.84
2023-04-17T06:31:49.372Z,250.00
2023-04-17T06:32:49.443Z,249.91
2023-04-17T06:33:49.527Z,250.00
2023-04-17T06:34:58.966Z,249.96
2023-04-17T06:35:50.452Z,250.12
2023-04-17T06:36:49.434Z,250.97
2023-04-17T06:37:49.403Z,253.13
2023-04-17T06:38:49.406Z,256.69
2023-04-17T06:39:49.364Z,263.24
2023-04-17T06:40:50.202Z,252.92
2023-04-17T06:41:49.308Z,249.54
2023-04-17T06:42:49.285Z,248.62
2023-04-17T06:43:49.339Z,230.21
2023-04-17T06:44:49.273Z,183.62
2023-04-17T06:45:49.231Z,150.94
2023-04-17T06:46:49.363Z,125.83
2023-04-17T06:47:49.247Z,108.35
2023-04-17T06:48:49.201Z,103.07
2023-04-17T06:49:49.219Z,106.36
2023-04-17T06:50:49.165Z,109.98
2023-04-17T06:51:49.165Z,115.81
2023-04-17T06:52:49.127Z,119.68
2023-04-17T06:53:49.157Z,125.36
2023-04-17T06:54:49.075Z,128.77
2023-04-17T06:55:49.041Z,133.63
2023-04-17T06:56:49.025Z,137.15
2023-04-17T06:57:49.005Z,140.00
2023-04-17T06:58:48.995Z,143.82
2023-04-17T06:59:48.987Z,146.48
2023-04-17T07:00:48.982Z,148.49
2023-04-17T07:01:49.023Z,151.11
2023-04-17T07:02:48.965Z,151.15
2023-04-17T07:03:49.115Z,145.76
2023-04-17T07:04:49.162Z,141.40
2023-04-17T07:05:48.833Z,142.06
2023-04-17T07:06:48.850Z,143.38
2023-04-17T07:07:48.777Z,145.44
2023-04-17T07:08:48.766Z,146.67
2023-04-17T07:09:48.746Z,149.36
2023-04-17T07:10:48.697Z,152.66
2023-04-17T07:11:48.688Z,154.55
2023-04-17T07:12:48.644Z,156.30
2023-04-17T07:13:48.675Z,159.31
2023-04-17T07:14:48.660Z,165.14
2023-04-17T07:15:48.709Z,167.99
2023-04-17T07:16:48.671Z,170.45
2023-04-17T07:17:48.535Z,174.25
2023-04-17T07:18:48.480Z,176.56
2023-04-17T07:19:48.503Z,179.95
2023-04-17T07:20:48.440Z,182.71
2023-04-17T07:21:48.381Z,186.14
2023-04-17T07:22:48.359Z,188.84
2023-04-17T07:23:48.414Z,189.73
2023-04-17T07:24:48.400Z,192.40
2023-04-17T07:25:48.420Z,190.53
2023-04-17T07:26:48.466Z,182.59
2023-04-17T07:27:48.491Z,177.99
2023-04-17T07:28:48.593Z,166.59
2023-04-17T07:29:48.610Z,151.67
2023-04-17T07:30:48.806Z,142.23
2023-04-17T07:31:48.939Z,134.39
2023-04-17T07:32:48.698Z,123.85
2023-04-17T07:33:48.678Z,117.01
2023-04-17T07:34:48.788Z,109.90
2023-04-17T07:35:48.830Z,106.07
2023-04-17T07:36:48.911Z,88.16
2023-04-17T07:37:48.851Z,91.98
2023-04-17T07:38:48.861Z,98.35
2023-04-17T07:39:48.847Z,107.87
2023-04-17T07:40:48.868Z,116.57
2023-04-17T07:41:48.864Z,116.82
2023-04-17T07:42:48.835Z,118.11
2023-04-17T07:43:48.898Z,121.14
2023-04-17T07:44:48.793Z,126.37
2023-04-17T07:45:48.786Z,135.38
2023-04-17T07:46:48.828Z,139.06
2023-04-17T07:47:48.802Z,141.21
2023-04-17T07:48:48.709Z,145.17
2023-04-17T07:49:48.777Z,143.96
2023-04-17T07:50:48.699Z,148.99
2023-04-17T07:51:48.743Z,151.69
2023-04-17T07:52:48.788Z,149.44
2023-04-17T07:53:48.812Z,152.19
2023-04-17T07:54:48.871Z,147.92
2023-04-17T07:55:48.902Z,148.71
2023-04-17T07:56:48.918Z,146.56
2023-04-17T07:57:48.956Z,144.90
2023-04-17T07:58:48.975Z,142.45
2023-04-17T07:59:48.982Z,142.02
2023-04-17T08:00:49.050Z,142.73
2023-04-17T08:01:49.041Z,142.94
2023-04-17T08:02:49.196Z,142.47
2023-04-17T08:03:49.292Z,139.43
2023-04-17T08:04:49.207Z,138.79
2023-04-17T08:05:49.104Z,134.54
2023-04-17T08:06:49.142Z,131.75
2023-04-17T08:07:49.215Z,130.34
2023-04-17T08:08:49.205Z,126.71
2023-04-17T08:09:49.260Z,130.09
2023-04-17T08:10:49.306Z,131.91
2023-04-17T08:11:56.828Z,130.87
2023-04-17T08:12:50.293Z,130.70
2023-04-17T08:13:49.242Z,130.89
2023-04-17T08:14:49.263Z,131.23
2023-04-17T08:15:49.191Z,131.11
2023-04-17T08:16:49.198Z,129.87
2023-04-17T08:17:49.181Z,129.06
2023-04-17T08:18:49.133Z,128.59
2023-04-17T08:19:49.113Z,127.46
2023-04-17T08:20:49.120Z,124.20
2023-04-17T08:21:49.124Z,122.96
2023-04-17T08:22:49.103Z,124.21
2023-04-17T08:23:49.064Z,119.25
2023-04-17T08:24:49.040Z,119.61
2023-04-17T08:25:49.017Z,117.48
2023-04-17T08:26:48.988Z,116.14
2023-04-17T08:27:48.974Z,111.83
2023-04-17T08:28:48.959Z,111.26
2023-04-17T08:29:49.040Z,109.57
2023-04-17T08:30:48.970Z,111.37
2023-04-17T08:31:51.587Z,103.22
2023-04-17T08:32:49.025Z,103.34
2023-04-17T08:33:49.097Z,103.72
2023-04-17T08:34:48.904Z,106.64
2023-04-17T08:35:48.873Z,104.21
2023-04-17T08:36:48.853Z,107.94
2023-04-17T08:37:48.832Z,112.84
2023-04-17T08:38:48.807Z,120.73
2023-04-17T08:39:48.804Z,128.15
2023-04-17T08:40:48.806Z,132.34
2023-04-17T08:41:48.721Z,130.09
2023-04-17T08:42:48.713Z,127.25
2023-04-17T08:43:48.664Z,130.48
2023-04-17T08:44:48.652Z,130.45
2023-04-17T08:45:48.620Z,128.34
2023-04-17T08:46:48.538Z,127.15
2023-04-17T08:47:48.559Z,119.13
2023-04-17T08:48:48.988Z,102.67
2023-04-17T08:49:48.450Z,85.56
2023-04-17T08:50:48.418Z,76.62
2023-04-17T08:51:48.698Z,72.08
2023-04-17T08:52:48.383Z,73.31
2023-04-17T08:53:48.384Z,70.48
2023-04-17T08:54:49.844Z,69.76
2023-04-17T08:55:48.349Z,66.33
2023-04-17T08:56:48.325Z,58.05
2023-04-17T08:57:48.298Z,48.63
2023-04-17T08:58:48.326Z,46.19
2023-04-17T08:59:48.318Z,48.52
2023-04-17T09:00:48.252Z,44.28
2023-04-17T09:01:48.277Z,36.41
2023-04-17T09:02:48.327Z,35.38
2023-04-17T09:03:48.341Z,35.36
2023-04-17T09:04:48.349Z,34.14
2023-04-17T09:05:48.193Z,33.34
2023-04-17T09:06:48.152Z,28.52
2023-04-17T09:07:49.130Z,28.70
2023-04-17T09:08:48.166Z,27.70
2023-04-17T09:09:48.109Z,25.64
2023-04-17T09:10:48.093Z,22.33
2023-04-17T09:11:48.096Z,22.29
2023-04-17T09:12:48.023Z,18.05
2023-04-17T09:13:48.112Z,17.58
2023-04-17T09:14:47.993Z,14.98
2023-04-17T09:15:48.031Z,15.40
2023-04-17T09:16:47.966Z,17.18
2023-04-17T09:17:47.941Z,18.06
2023-04-17T09:18:47.876Z,25.74
2023-04-17T09:19:47.917Z,25.00
2023-04-17T09:20:47.855Z,26.16
2023-04-17T09:21:47.829Z,27.35
2023-04-17T09:22:47.836Z,27.00
2023-04-17T09:23:47.825Z,26.98
2023-04-17T09:24:47.853Z,26.07
2023-04-17T09:25:47.791Z,25.65
2023-04-17T09:26:47.806Z,25.84
2023-04-17T09:27:47.850Z,26.05
2023-04-17T09:28:47.813Z,27.28
2023-04-17T09:29:47.916Z,28.42
2023-04-17T09:30:47.895Z,34.56
2023-04-17T09:31:47.962Z,51.34
2023-04-17T09:32:48.033Z,73.48
2023-04-17T09:33:48.093Z,74.24
2023-04-17T09:34:47.926Z,80.25
2023-04-17T09:35:47.861Z,93.65
2023-04-17T09:36:47.844Z,75.53
2023-04-17T09:37:47.903Z,75.73
2023-04-17T09:38:47.874Z,83.67
2023-04-17T09:39:47.744Z,98.58
2023-04-17T09:40:47.818Z,122.01
